createdAt,value
2019-02-27T00:00:48.128Z,10.30
2019-02-27T00:03:18.217Z,9.95
2019-02-27T00:05:47.271Z,9.93
2019-02-27T00:08:16.160Z,10.28
2019-02-27T02:35:16.301Z,9.03
2019-02-27T02:38:41.682Z,9.08
2019-02-27T02:41:38.056Z,9.05
2019-02-27T02:44:33.980Z,8.97
2019-02-27T02:47:35.241Z,8.25
2019-02-27T02:51:03.625Z,8.60
2019-02-27T02:54:03.545Z,8.83
2019-02-27T02:56:40.470Z,8.73
2019-02-27T02:59:46.562Z,8.45
2019-02-27T03:02:29.781Z,8.70
2019-02-27T03:05:37.206Z,9.00
2019-02-27T03:08:41.802Z,8.90
2019-02-27T03:11:54.217Z,9.48
2019-02-27T03:14:43.614Z,9.48
2019-02-27T03:17:38.868Z,9.50
2019-02-27T03:20:44.169Z,9.48
2019-02-27T03:23:43.421Z,9.53
2019-02-27T03:26:53.336Z,9.85
2019-02-27T03:29:41.209Z,10.00
2019-02-27T03:32:22.450Z,10.50
2019-02-27T03:35:50.766Z,11.08
2019-02-27T03:39:09.645Z,10.63
2019-02-27T03:42:18.840Z,11.33
2019-02-27T03:45:14.877Z,11.20
2019-02-27T03:48:27.427Z,19.02
2019-02-27T03:51:08.351Z,17.67
2019-02-27T03:54:13.506Z,17.65
2019-02-27T03:57:23.189Z,17.98
2019-02-27T04:00:49.841Z,16.15
2019-02-27T04:03:55.503Z,14.50
2019-02-27T04:07:05.914Z,12.13
2019-02-27T04:09:34.971Z,12.18
2019-02-27T04:12:04.088Z,10.70
2019-02-27T04:14:40.514Z,11.57
2019-02-27T04:17:07.082Z,10.82
2019-02-27T04:19:39.229Z,11.48
2019-02-27T04:22:07.338Z,11.35
2019-02-27T04:24:36.517Z,11.38
2019-02-27T04:27:05.800Z,11.40
2019-02-27T04:29:34.772Z,11.33
2019-02-27T04:32:03.867Z,10.50
2019-02-27T04:34:33.187Z,11.18
2019-02-27T04:37:02.804Z,10.32
2019-02-27T04:39:31.814Z,11.05
2019-02-27T04:42:00.845Z,11.48
2019-02-27T04:44:30.219Z,11.48
2019-02-27T04:46:59.376Z,11.18
2019-02-27T04:49:28.443Z,11.33
2019-02-27T04:51:57.896Z,10.55
2019-02-27T04:54:27.769Z,11.67
2019-02-27T04:56:57.573Z,13.40
2019-02-27T04:59:27.020Z,13.57
2019-02-27T05:01:57.265Z,13.13
2019-02-27T05:04:26.847Z,12.93
2019-02-27T05:06:55.804Z,12.75
2019-02-27T05:09:24.676Z,12.35
2019-02-27T05:11:53.708Z,11.78
2019-02-27T05:14:24.795Z,11.18
2019-02-27T05:16:53.379Z,12.00
2019-02-27T05:19:22.344Z,12.18
2019-02-27T05:21:52.566Z,12.28
2019-02-27T05:24:22.182Z,12.37
2019-02-27T05:26:51.008Z,12.50
2019-02-27T05:29:20.519Z,12.47
2019-02-27T05:31:50.183Z,12.15
2019-02-27T05:34:20.209Z,11.73
2019-02-27T05:36:49.197Z,12.40
2019-02-27T05:39:18.389Z,11.53
2019-02-27T05:41:47.344Z,12.13
2019-02-27T05:44:21.329Z,13.03
2019-02-27T05:46:47.673Z,12.33
2019-02-27T05:49:16.536Z,12.05
2019-02-27T05:51:45.461Z,11.28
2019-02-27T05:54:14.332Z,12.25
2019-02-27T05:56:43.378Z,12.73
2019-02-27T05:59:12.280Z,12.33
2019-02-27T06:01:41.147Z,13.00
2019-02-27T06:04:10.079Z,13.05
2019-02-27T06:06:39.030Z,12.35
2019-02-27T06:09:10.990Z,13.50
2019-02-27T06:11:40.012Z,12.70
2019-02-27T06:14:09.320Z,13.10
2019-02-27T06:16:40.733Z,12.40
2019-02-27T06:19:09.396Z,13.58
2019-02-27T06:21:38.905Z,12.93
2019-02-27T06:24:11.588Z,13.48
2019-02-27T06:26:38.888Z,12.80
2019-02-27T06:29:08.252Z,13.20
2019-02-27T06:31:39.431Z,13.75
2019-02-27T06:34:07.908Z,13.22
2019-02-27T06:36:41.850Z,12.75
2019-02-27T06:39:08.827Z,12.20
2019-02-27T06:41:39.766Z,12.23
2019-02-27T06:44:08.805Z,13.55
2019-02-27T06:46:37.728Z,13.10
2019-02-27T06:49:06.653Z,12.95
2019-02-27T06:51:36.523Z,12.88
2019-02-27T06:54:05.618Z,12.80
2019-02-27T06:56:34.612Z,11.73
2019-02-27T06:59:03.608Z,12.53
2019-02-27T07:01:32.491Z,12.82
2019-02-27T07:04:02.250Z,12.33
2019-02-27T07:06:32.324Z,11.13
2019-02-27T07:09:01.196Z,10.75
2019-02-27T07:11:30.043Z,10.53
2019-02-27T07:13:59.000Z,10.20
2019-02-27T07:16:27.915Z,10.35
2019-02-27T07:18:56.857Z,10.40
2019-02-27T07:21:25.820Z,10.85
2019-02-27T07:23:57.883Z,11.05
2019-02-27T07:26:25.355Z,10.70
2019-02-27T07:28:54.715Z,10.53
2019-02-27T07:31:23.646Z,10.00
2019-02-27T07:33:52.608Z,11.20
2019-02-27T07:36:21.556Z,11.08
2019-02-27T07:38:50.472Z,11.20
2019-02-27T07:41:20.892Z,11.63
2019-02-27T07:43:49.988Z,11.40
2019-02-27T07:46:22.198Z,11.22
2019-02-27T07:48:50.363Z,11.15
2019-02-27T07:51:20.846Z,11.30
2019-02-27T07:53:51.377Z,10.90
2019-02-27T07:56:20.459Z,10.60
2019-02-27T07:58:51.996Z,10.40
2019-02-27T08:01:23.401Z,11.00
2019-02-27T08:03:51.560Z,11.20
2019-02-27T08:06:21.025Z,10.00
2019-02-27T08:08:49.890Z,10.58
2019-02-27T08:11:18.760Z,10.10
2019-02-27T08:13:47.691Z,9.90
2019-02-27T08:16:17.080Z,9.60
2019-02-27T08:18:46.056Z,9.83
2019-02-27T08:21:15.065Z,9.80
2019-02-27T08:23:44.037Z,9.35
2019-02-27T08:26:12.936Z,9.80
2019-02-27T08:28:42.305Z,9.60
2019-02-27T08:31:11.308Z,9.35
2019-02-27T08:33:40.233Z,9.63
2019-02-27T08:36:09.789Z,9.13
2019-02-27T08:38:39.472Z,9.08
2019-02-27T08:41:08.748Z,9.30
2019-02-27T08:43:37.868Z,9.60
2019-02-27T08:46:06.732Z,9.25
2019-02-27T08:48:35.739Z,9.30
2019-02-27T08:51:08.390Z,9.23
2019-02-27T08:53:35.531Z,9.58
2019-02-27T08:56:04.524Z,9.20
2019-02-27T08:58:33.580Z,9.35
2019-02-27T09:01:04.933Z,9.25
2019-02-27T09:03:36.463Z,9.03
2019-02-27T09:06:04.789Z,9.65
2019-02-27T09:08:33.722Z,9.30
2019-02-27T09:11:06.539Z,8.60
2019-02-27T09:13:33.757Z,9.20
2019-02-27T09:16:02.716Z,9.20
2019-02-27T09:18:33.315Z,9.53
2019-02-27T09:21:02.427Z,9.60
2019-02-27T09:23:31.344Z,9.88
2019-02-27T09:26:02.825Z,9.35
2019-02-27T09:28:30.972Z,9.55
2019-02-27T09:31:04.255Z,9.60
2019-02-27T09:33:38.548Z,9.90
2019-02-27T09:36:02.313Z,9.50
2019-02-27T09:38:31.747Z,9.13
2019-02-27T09:41:00.677Z,9.43
2019-02-27T09:43:29.696Z,9.93
2019-02-27T09:45:58.552Z,9.40
2019-02-27T09:48:27.558Z,9.30
2019-02-27T09:50:57.028Z,9.70
2019-02-27T09:53:26.332Z,9.48
2019-02-27T09:55:55.403Z,10.00
2019-02-27T09:58:24.400Z,9.93
2019-02-27T10:00:59.204Z,10.30
2019-02-27T10:03:26.868Z,10.10
2019-02-27T10:05:55.816Z,9.50
2019-02-27T10:08:25.532Z,10.00
2019-02-27T10:10:55.100Z,9.93
2019-02-27T10:13:24.110Z,10.13
2019-02-27T10:15:53.156Z,10.05
2019-02-27T10:18:22.352Z,10.20
2019-02-27T10:20:51.383Z,10.38
2019-02-27T10:23:20.383Z,10.30
2019-02-27T10:25:50.020Z,10.70
2019-02-27T10:28:24.600Z,10.53
2019-02-27T10:30:53.629Z,10.03
2019-02-27T10:33:25.871Z,10.38
2019-02-27T10:35:54.828Z,10.43
2019-02-27T10:38:26.094Z,10.60
2019-02-27T10:40:55.118Z,10.15
2019-02-27T10:43:24.253Z,10.67
2019-02-27T10:45:53.224Z,10.03
2019-02-27T10:48:22.712Z,10.90
2019-02-27T10:50:51.783Z,10.20
2019-02-27T10:53:27.128Z,9.78
2019-02-27T10:55:52.954Z,10.13
2019-02-27T10:58:21.921Z,9.95
2019-02-27T11:00:51.191Z,9.68
2019-02-27T11:03:20.165Z,9.75
2019-02-27T11:05:55.558Z,10.00
2019-02-27T11:08:28.844Z,9.60
2019-02-27T11:10:56.458Z,9.98
2019-02-27T11:13:25.445Z,9.83
2019-02-27T11:15:54.446Z,10.08
2019-02-27T11:18:23.858Z,10.08
2019-02-27T11:20:55.678Z,9.48
2019-02-27T11:23:23.545Z,10.17
2019-02-27T11:25:56.564Z,10.03
2019-02-27T11:28:23.325Z,9.60
2019-02-27T11:30:52.701Z,10.05
2019-02-27T11:33:25.973Z,9.90
2019-02-27T11:35:53.094Z,9.83
2019-02-27T11:38:24.876Z,9.48
2019-02-27T11:40:52.878Z,9.33
2019-02-27T11:43:21.933Z,9.15
2019-02-27T11:45:51.291Z,9.30
2019-02-27T11:48:22.674Z,9.40
2019-02-27T11:50:50.924Z,8.90
2019-02-27T11:53:20.165Z,9.00
2019-02-27T11:55:49.238Z,8.83
2019-02-27T11:58:18.245Z,9.50
2019-02-27T12:00:47.276Z,9.68
2019-02-27T12:03:16.290Z,9.53
2019-02-27T12:05:45.938Z,9.70
2019-02-27T12:08:14.800Z,8.68
2019-02-27T12:10:43.765Z,8.28
2019-02-27T12:13:12.812Z,8.30
2019-02-27T12:15:43.602Z,8.40
2019-02-27T12:18:12.465Z,8.83
2019-02-27T12:20:41.456Z,8.00
2019-02-27T12:23:10.842Z,7.70
2019-02-27T12:25:39.808Z,7.67
2019-02-27T12:28:08.802Z,7.70
2019-02-27T12:30:38.037Z,7.45
2019-02-27T12:33:07.493Z,7.37
2019-02-27T12:35:36.482Z,6.78
2019-02-27T12:38:08.102Z,7.40
2019-02-27T12:40:36.683Z,6.90
2019-02-27T12:43:05.713Z,7.35
2019-02-27T12:45:34.859Z,6.40
2019-02-27T12:48:03.871Z,7.67
2019-02-27T12:50:33.444Z,7.28
2019-02-27T12:53:03.645Z,6.35
2019-02-27T12:55:35.422Z,6.35
2019-02-27T12:58:03.704Z,6.37
2019-02-27T13:00:33.256Z,7.00
2019-02-27T13:03:02.149Z,6.35
2019-02-27T13:05:31.149Z,6.60
2019-02-27T13:08:00.171Z,6.15
2019-02-27T13:10:33.507Z,5.80
2019-02-27T13:13:00.184Z,5.80
2019-02-27T13:15:29.266Z,5.60
2019-02-27T13:17:58.763Z,5.95
2019-02-27T13:20:27.795Z,5.85
2019-02-27T13:22:57.128Z,5.23
2019-02-27T13:25:26.127Z,5.78
2019-02-27T13:27:55.112Z,5.78
2019-02-27T13:30:24.153Z,5.62
2019-02-27T13:32:53.095Z,5.33
2019-02-27T13:35:23.142Z,5.40
2019-02-27T13:37:52.851Z,5.80
2019-02-27T13:40:21.969Z,5.85
2019-02-27T13:42:53.330Z,5.47
2019-02-27T13:45:23.933Z,5.60
2019-02-27T13:47:53.066Z,5.90
2019-02-27T13:50:24.527Z,6.00
2019-02-27T13:52:52.997Z,5.10
2019-02-27T13:55:22.182Z,5.55
2019-02-27T13:57:51.207Z,5.50
2019-02-27T14:00:26.156Z,5.17
2019-02-27T14:02:55.307Z,5.28
2019-02-27T14:05:24.341Z,5.00
2019-02-27T14:07:56.984Z,5.20
2019-02-27T14:10:25.555Z,5.20
2019-02-27T14:12:54.576Z,4.97
2019-02-27T14:15:26.774Z,5.20
2019-02-27T14:17:54.464Z,4.95
2019-02-27T14:20:26.856Z,4.50
2019-02-27T14:22:54.947Z,4.70
2019-02-27T14:25:28.530Z,4.90
2019-02-27T14:27:56.331Z,5.00
2019-02-27T14:30:31.326Z,4.58
2019-02-27T14:33:00.401Z,4.90
2019-02-27T14:35:29.391Z,4.70
2019-02-27T14:37:58.354Z,4.47
2019-02-27T14:40:27.357Z,4.30
2019-02-27T14:42:56.387Z,4.35
2019-02-27T14:45:25.654Z,4.40
2019-02-27T14:47:54.624Z,4.40
2019-02-27T14:50:23.589Z,4.43
2019-02-27T14:52:52.715Z,4.30
2019-02-27T14:55:21.778Z,4.45
2019-02-27T14:57:51.511Z,3.80
2019-02-27T15:00:25.576Z,3.77
2019-02-27T15:02:55.572Z,3.40
2019-02-27T15:05:27.412Z,3.57
2019-02-27T15:07:56.476Z,3.90
2019-02-27T15:10:25.795Z,4.00
2019-02-27T15:12:55.626Z,3.65
2019-02-27T15:15:26.589Z,3.62
2019-02-27T15:17:55.701Z,3.87
2019-02-27T15:20:25.672Z,4.08
2019-02-27T15:22:55.055Z,3.40
2019-02-27T15:25:24.074Z,3.77
2019-02-27T15:27:53.005Z,3.47
2019-02-27T15:30:23.856Z,3.67
2019-02-27T15:32:52.864Z,3.70
2019-02-27T15:35:22.278Z,3.70
2019-02-27T15:37:51.598Z,3.45
2019-02-27T15:40:21.751Z,3.10
2019-02-27T15:42:50.795Z,2.90
2019-02-27T15:45:20.460Z,2.92
2019-02-27T15:47:49.855Z,3.00
2019-02-27T15:50:22.705Z,2.87
2019-02-27T15:52:50.825Z,3.10
2019-02-27T15:55:19.834Z,2.98
2019-02-27T15:57:52.575Z,3.00
2019-02-27T16:00:21.269Z,3.12
2019-02-27T16:02:50.344Z,2.90
2019-02-27T16:05:19.380Z,3.20
2019-02-27T16:07:49.799Z,2.85
2019-02-27T16:10:20.500Z,2.92
2019-02-27T16:12:49.732Z,3.00
2019-02-27T16:15:18.912Z,3.27
2019-02-27T16:17:48.032Z,3.35
2019-02-27T16:20:17.905Z,3.10
2019-02-27T16:22:46.968Z,3.20
2019-02-27T16:25:19.946Z,3.00
2019-02-27T16:27:48.532Z,3.30
2019-02-27T16:30:19.597Z,3.20
2019-02-27T16:32:49.996Z,3.10
2019-02-27T16:35:19.199Z,2.90
2019-02-27T16:37:48.161Z,2.90
2019-02-27T16:40:18.637Z,3.12
2019-02-27T16:42:47.972Z,3.67
2019-02-27T16:45:18.448Z,4.05
2019-02-27T16:47:47.648Z,4.30
2019-02-27T16:50:24.549Z,5.00
2019-02-27T16:52:52.124Z,5.12
2019-02-27T16:55:22.147Z,4.90
2019-02-27T16:57:56.551Z,4.30
2019-02-27T17:00:24.747Z,4.42
2019-02-27T17:02:53.777Z,4.87
2019-02-27T17:05:22.687Z,5.10
2019-02-27T17:07:52.335Z,5.40
2019-02-27T17:10:23.937Z,5.10
2019-02-27T17:12:54.727Z,5.40
2019-02-27T17:15:23.859Z,5.40
2019-02-27T17:17:53.333Z,8.43
2019-02-27T17:20:24.072Z,7.87
2019-02-27T17:22:53.107Z,10.55
2019-02-27T17:25:22.109Z,10.30
2019-02-27T17:27:53.413Z,7.17
2019-02-27T17:30:29.557Z,9.05
2019-02-27T17:33:01.286Z,7.05
2019-02-27T17:35:29.605Z,7.40
2019-02-27T17:37:59.109Z,7.67
2019-02-27T17:40:29.278Z,7.40
2019-02-27T17:42:58.547Z,7.80
2019-02-27T17:45:27.591Z,8.20
2019-02-27T17:47:56.658Z,8.28
2019-02-27T17:50:30.967Z,6.95
2019-02-27T17:52:56.458Z,7.03
2019-02-27T17:55:25.499Z,7.70
2019-02-27T17:57:57.869Z,7.95
2019-02-27T18:00:30.628Z,6.90
2019-02-27T18:02:59.692Z,8.80
2019-02-27T18:05:28.726Z,8.25
2019-02-27T18:07:57.818Z,8.23
2019-02-27T18:10:26.866Z,7.58
2019-02-27T18:12:55.921Z,7.90
2019-02-27T18:15:24.990Z,8.70
2019-02-27T18:17:54.021Z,9.43
2019-02-27T18:20:25.584Z,9.40
2019-02-27T18:22:53.854Z,9.50
2019-02-27T18:25:22.861Z,9.20
2019-02-27T18:27:53.364Z,8.93
2019-02-27T18:30:22.480Z,8.08
2019-02-27T18:32:51.534Z,7.60
2019-02-27T18:35:20.590Z,8.15
2019-02-27T18:37:53.366Z,8.15
2019-02-27T18:40:20.732Z,8.08
2019-02-27T18:42:55.220Z,7.78
2019-02-27T18:45:21.447Z,8.78
2019-02-27T18:47:50.540Z,9.30
2019-02-27T18:50:19.569Z,8.10
2019-02-27T18:52:48.860Z,8.50
2019-02-27T18:55:17.932Z,8.00
2019-02-27T18:57:47.603Z,7.97
2019-02-27T19:00:20.681Z,8.13
2019-02-27T19:02:52.031Z,7.95
2019-02-27T19:05:22.060Z,7.90
2019-02-27T19:07:54.780Z,8.07
2019-02-27T19:10:22.478Z,7.90
2019-02-27T19:12:51.577Z,8.65
2019-02-27T19:15:22.081Z,9.00
2019-02-27T19:17:51.539Z,8.27
2019-02-27T19:20:24.915Z,8.05
2019-02-27T19:22:53.397Z,9.20
2019-02-27T19:25:22.531Z,9.85
2019-02-27T19:27:51.540Z,10.47
2019-02-27T19:30:20.958Z,11.45
2019-02-27T19:32:50.216Z,11.53
2019-02-27T19:35:21.685Z,12.05
2019-02-27T19:37:50.592Z,11.28
2019-02-27T19:40:20.252Z,11.45
2019-02-27T19:42:51.432Z,10.97
2019-02-27T19:45:20.428Z,10.35
2019-02-27T19:47:54.062Z,13.50
2019-02-27T19:50:22.972Z,14.57
2019-02-27T19:52:54.499Z,12.60
2019-02-27T19:55:27.444Z,12.35
2019-02-27T19:57:55.827Z,11.97
2019-02-27T20:00:26.267Z,11.73
2019-02-27T20:03:00.281Z,11.35
2019-02-27T20:05:26.085Z,11.75
2019-02-27T20:07:55.341Z,11.07
2019-02-27T20:10:29.056Z,12.07
2019-02-27T20:12:55.380Z,11.48
2019-02-27T20:15:24.613Z,11.10
2019-02-27T20:17:53.608Z,11.57
2019-02-27T20:20:22.968Z,12.07
2019-02-27T20:22:53.473Z,13.78
2019-02-27T20:25:23.663Z,16.05
2019-02-27T20:27:52.697Z,15.63
2019-02-27T20:30:22.030Z,15.20
2019-02-27T20:32:51.059Z,15.10
2019-02-27T20:35:20.803Z,14.30
2019-02-27T20:37:52.120Z,13.93
2019-02-27T20:40:21.305Z,14.53
2019-02-27T20:42:55.052Z,13.48
2019-02-27T20:45:32.105Z,16.15
2019-02-27T20:48:19.362Z,14.67
2019-02-27T20:50:55.253Z,14.43
2019-02-27T20:57:17.480Z,15.40
2019-02-27T21:00:59.291Z,15.17
2019-02-27T21:07:06.776Z,15.05
2019-02-27T21:09:36.116Z,14.83
2019-02-27T21:12:33.549Z,16.17
2019-02-27T21:15:29.410Z,16.23
2019-02-27T21:18:04.788Z,15.15
2019-02-27T21:20:45.236Z,15.70
2019-02-27T21:23:35.236Z,15.35
2019-02-27T21:27:11.703Z,24.27
2019-02-27T21:29:46.946Z,19.35
2019-02-27T21:32:27.675Z,18.12
2019-02-27T21:35:49.711Z,19.40
2019-02-27T21:43:03.050Z,19.87
2019-02-27T21:54:11.989Z,22.73
2019-02-27T22:01:15.814Z,20.37
2019-02-27T22:03:45.956Z,21.48
2019-02-27T22:06:27.505Z,20.37
2019-02-27T22:09:05.337Z,21.00
2019-02-27T22:11:40.000Z,21.25
2019-02-27T22:14:10.453Z,20.35
2019-02-27T22:16:40.785Z,21.95
2019-02-27T22:19:09.725Z,21.85
2019-02-27T22:21:39.025Z,20.92
2019-02-27T22:24:07.965Z,20.95
2019-02-27T22:26:37.503Z,20.57
2019-02-27T22:29:10.777Z,20.90
2019-02-27T22:31:40.513Z,22.05
2019-02-27T22:34:10.299Z,21.17
2019-02-27T22:36:39.306Z,21.70
2019-02-27T22:39:08.375Z,21.50
2019-02-27T22:41:43.050Z,20.72
2019-02-27T22:44:13.854Z,21.85
2019-02-27T22:46:42.633Z,21.00
2019-02-27T22:49:11.696Z,21.40
2019-02-27T22:51:40.628Z,21.12
2019-02-27T22:54:09.552Z,22.65
2019-02-27T22:56:38.368Z,21.60
2019-02-27T22:59:10.709Z,22.50
2019-02-27T23:01:43.556Z,22.13
2019-02-27T23:04:12.732Z,21.87
2019-02-27T23:06:47.286Z,21.75
2019-02-27T23:09:18.676Z,21.52
2019-02-27T23:11:49.312Z,22.32
2019-02-27T23:14:19.686Z,21.77
2019-02-27T23:16:49.241Z,22.60
2019-02-27T23:19:18.553Z,21.73
2019-02-27T23:21:47.549Z,21.80
2019-02-27T23:24:16.612Z,21.48
2019-02-27T23:26:45.681Z,21.73
2019-02-27T23:29:14.705Z,21.25
2019-02-27T23:31:43.728Z,20.75
2019-02-27T23:34:15.543Z,21.50
2019-02-27T23:36:44.410Z,20.32
2019-02-27T23:39:14.736Z,21.00
2019-02-27T23:41:43.637Z,20.23
2019-02-27T23:44:12.580Z,20.17
2019-02-27T23:46:48.739Z,19.17
2019-02-27T23:49:12.377Z,19.02
2019-02-27T23:51:43.908Z,19.57
2019-02-27T23:54:13.328Z,19.23
2019-02-27T23:56:42.330Z,19.37
2019-02-27T23:59:11.280Z,19.02
